Terminal Aerodrome Forecast
Issued by NWS Topeka, KS

Home | Current Version | Previous Version | Text Only | Print | Product List | Glossary Off
Versions: 1 2 3 4 5 6 7 8 9 10 11 12 13 14

000
FTUS43 KTOP 272300
TAFTOP
TAF
KTOP 272320Z 2800/2824 13003KT P6SM SKC
     FM281100 11001KT 3SM MIFG FEW150
     FM281330 16005KT P6SM SCT060=

USA.gov is the U.S. government's official web portal to all federal, state and local government web resources and services.